sensor_id;sensor_type;location;lat;lon;timestamp;P1;P2;P0
50041;PMS7003;44598;51.606;5.912;2023-02-18T00:18:43;29.89;25.62;14.51
50041;PMS7003;44598;51.606;5.912;2023-02-18T00:32:03;29.53;25.3;14.18
50041;PMS7003;44598;51.606;5.912;2023-02-18T00:45:23;30.97;26.28;14.07
50041;PMS7003;44598;51.606;5.912;2023-02-18T00:58:43;31.57;26.28;14.18
50041;PMS7003;44598;51.606;5.912;2023-02-18T01:12:02;30.49;25.41;13.96
50041;PMS7003;44598;51.606;5.912;2023-02-18T01:25:22;31.21;25.41;13.96
50041;PMS7003;44598;51.606;5.912;2023-02-18T01:52:02;26.05;22.9;12.76
50041;PMS7003;44598;51.606;5.912;2023-02-18T02:05:22;25.69;21.81;12.11
50041;PMS7003;44598;51.606;5.912;2023-02-18T02:18:41;20.77;19.52;10.8
50041;PMS7003;44598;51.606;5.912;2023-02-18T02:32:01;19.81;19.3;10.04
50041;PMS7003;44598;51.606;5.912;2023-02-18T02:45:21;18.13;18.43;9.38
50041;PMS7003;44598;51.606;5.912;2023-02-18T02:58:41;16.45;17.12;9.49
50041;PMS7003;44598;51.606;5.912;2023-02-18T03:25:21;17.77;17.67;9.49
50041;PMS7003;44598;51.606;5.912;2023-02-18T03:38:40;11.89;13.96;6.88
50041;PMS7003;44598;51.606;5.912;2023-02-18T03:52:00;9.97;11.45;5.79
50041;PMS7003;44598;51.606;5.912;2023-02-18T04:05:20;7.69;9.82;4.91
50041;PMS7003;44598;51.606;5.912;2023-02-18T04:18:40;5.17;7.97;3.82
50041;PMS7003;44598;51.606;5.912;2023-02-18T04:32:00;3.6;6.44;3.28
50041;PMS7003;44598;51.606;5.912;2023-02-18T04:45:20;3.0;5.35;2.84
50041;PMS7003;44598;51.606;5.912;2023-02-18T04:58:39;0.72;3.17;2.19
50041;PMS7003;44598;51.606;5.912;2023-02-18T05:11:59;0.72;3.5;2.19
50041;PMS7003;44598;51.606;5.912;2023-02-18T05:25:19;0.84;3.17;1.97
50041;PMS7003;44598;51.606;5.912;2023-02-18T05:38:39;0.96;3.82;1.97
50041;PMS7003;44598;51.606;5.912;2023-02-18T05:51:59;0.01;2.62;1.64
50041;PMS7003;44598;51.606;5.912;2023-02-18T06:05:19;0.01;2.95;1.86
50041;PMS7003;44598;51.606;5.912;2023-02-18T06:18:38;0.12;3.39;2.3
50041;PMS7003;44598;51.606;5.912;2023-02-18T06:31:58;0.12;3.39;2.19
50041;PMS7003;44598;51.606;5.912;2023-02-18T06:45:18;1.44;4.04;2.41
50041;PMS7003;44598;51.606;5.912;2023-02-18T06:58:38;2.16;5.13;2.84
50041;PMS7003;44598;51.606;5.912;2023-02-18T07:11:58;3.24;6.22;3.39
50041;PMS7003;44598;51.606;5.912;2023-02-18T07:25:17;4.81;7.64;4.15
50041;PMS7003;44598;51.606;5.912;2023-02-18T07:38:37;7.21;9.6;5.24
50041;PMS7003;44598;51.606;5.912;2023-02-18T07:51:57;3.73;6.44;3.5
50041;PMS7003;44598;51.606;5.912;2023-02-18T08:05:17;8.89;11.24;5.9
50041;PMS7003;44598;51.606;5.912;2023-02-18T08:18:37;9.73;11.78;6.11
50041;PMS7003;44598;51.606;5.912;2023-02-18T08:31:56;12.13;12.22;6.88
50041;PMS7003;44598;51.606;5.912;2023-02-18T08:58:36;11.65;12.65;7.31
50041;PMS7003;44598;51.606;5.912;2023-02-18T09:11:56;11.29;11.78;6.66
50041;PMS7003;44598;51.606;5.912;2023-02-18T09:25:16;11.77;11.67;6.11
50041;PMS7003;44598;51.606;5.912;2023-02-18T09:38:35;11.17;12.0;6.55
50041;PMS7003;44598;51.606;5.912;2023-02-18T09:51:55;9.97;11.02;6.22
50041;PMS7003;44598;51.606;5.912;2023-02-18T10:05:15;10.21;10.26;5.46
50041;PMS7003;44598;51.606;5.912;2023-02-18T10:31:55;7.33;8.08;4.7
50041;PMS7003;44598;51.606;5.912;2023-02-18T10:45:14;5.89;7.2;4.91
50041;PMS7003;44598;51.606;5.912;2023-02-18T11:11:54;9.01;9.06;5.79
50041;PMS7003;44598;51.606;5.912;2023-02-18T11:25:14;9.25;10.36;6.33
50041;PMS7003;44598;51.606;5.912;2023-02-18T11:38:34;8.77;10.36;5.68
50041;PMS7003;44598;51.606;5.912;2023-02-18T11:51:54;9.61;9.27;5.68
50041;PMS7003;44598;51.606;5.912;2023-02-18T12:05:13;7.21;9.17;5.24
50041;PMS7003;44598;51.606;5.912;2023-02-18T12:31:53;10.09;9.82;5.9
50041;PMS7003;44598;51.606;5.912;2023-02-18T12:45:13;7.57;8.62;5.46
50041;PMS7003;44598;51.606;5.912;2023-02-18T12:58:33;6.25;7.75;5.24
50041;PMS7003;44598;51.606;5.912;2023-02-18T13:11:53;6.13;7.31;4.91
50041;PMS7003;44598;51.606;5.912;2023-02-18T13:25:12;5.65;7.09;5.02
50041;PMS7003;44598;51.606;5.912;2023-02-18T13:38:32;5.17;6.77;4.7
50041;PMS7003;44598;51.606;5.912;2023-02-18T13:51:52;5.41;7.86;5.24
50041;PMS7003;44598;51.606;5.912;2023-02-18T14:18:32;5.29;6.66;4.59
50041;PMS7003;44598;51.606;5.912;2023-02-18T14:31:52;4.21;5.9;3.93
50041;PMS7003;44598;51.606;5.912;2023-02-18T14:58:31;3.85;5.35;3.71
50041;PMS7003;44598;51.606;5.912;2023-02-18T15:11:51;3.73;5.46;3.71
50041;PMS7003;44598;51.606;5.912;2023-02-18T16:05:10;0.96;4.15;2.95
50041;PMS7003;44598;51.606;5.912;2023-02-18T16:18:30;1.08;3.61;2.62
50041;PMS7003;44598;51.606;5.912;2023-02-18T16:58:30;2.28;3.61;2.52
50041;PMS7003;44598;51.606;5.912;2023-02-18T17:51:49;23.17;21.26;12.11
50041;PMS7003;44598;51.606;5.912;2023-02-18T18:05:09;24.85;21.59;12.44
50041;PMS7003;44598;51.606;5.912;2023-02-18T18:18:28;27.61;23.99;13.31
50041;PMS7003;44598;51.606;5.912;2023-02-18T18:31:48;26.29;22.9;12.76
50041;PMS7003;44598;51.606;5.912;2023-02-18T18:45:08;22.93;21.05;11.67
50041;PMS7003;44598;51.606;5.912;2023-02-18T18:58:28;21.61;19.63;11.13
50041;PMS7003;44598;51.606;5.912;2023-02-18T19:25:08;21.61;19.08;10.47
50041;PMS7003;44598;51.606;5.912;2023-02-18T19:38:27;19.57;18.87;10.26
50041;PMS7003;44598;51.606;5.912;2023-02-18T19:51:47;19.45;19.08;10.36
50041;PMS7003;44598;51.606;5.912;2023-02-18T20:05:07;19.21;18.87;11.02
50041;PMS7003;44598;51.606;5.912;2023-02-18T20:18:27;22.21;20.5;11.35
50041;PMS7003;44598;51.606;5.912;2023-02-18T20:31:47;24.73;21.59;12.65
50041;PMS7003;44598;51.606;5.912;2023-02-18T20:45:06;24.49;22.03;12.33
50041;PMS7003;44598;51.606;5.912;2023-02-18T21:11:46;26.41;22.57;12.98
50041;PMS7003;44598;51.606;5.912;2023-02-18T21:25:06;24.97;22.03;12.54
50041;PMS7003;44598;51.606;5.912;2023-02-18T21:38:26;25.69;22.46;12.54
50041;PMS7003;44598;51.606;5.912;2023-02-18T21:51:45;27.13;22.79;12.44
50041;PMS7003;44598;51.606;5.912;2023-02-18T22:05:05;25.69;22.79;12.44
50041;PMS7003;44598;51.606;5.912;2023-02-18T22:18:25;25.93;22.46;12.65
50041;PMS7003;44598;51.606;5.912;2023-02-18T22:45:05;26.41;22.9;13.2
50041;PMS7003;44598;51.606;5.912;2023-02-18T23:11:44;29.05;24.97;14.62
50041;PMS7003;44598;51.606;5.912;2023-02-18T23:25:04;29.17;25.08;13.74
50041;PMS7003;44598;51.606;5.912;2023-02-18T23:38:24;30.13;25.41;14.29
50041;PMS7003;44598;51.606;5.912;2023-02-18T23:51:44;29.77;25.3;14.18
